Time;durP1;ratioP1;P1;durP2;ratioP2;P2;SDS_P1;SDS_P2;PMS_P1;PMS_P2;Temp;Humidity;BMP_temperature;BMP_pressure;BME280_temperature;BME280_humidity;BME280_pressure;Samples;Min_cycle;Max_cycle;Signal;HPM_P1;HPM_P2
2022/07/03 00:00:32;;;;;;;4.47;2.37;;;;;;;;;;5212731;28;20010;-70
2022/07/03 00:03:03;;;;;;;5.77;2.10;;;;;;;;;;5228288;28;20048;-70
2022/07/03 00:05:34;;;;;;;8.37;3.10;;;;;;;;;;5231245;28;20417;-70
2022/07/03 00:08:05;;;;;;;4.00;2.80;;;;;;;;;;5249002;28;20068;-70
2022/07/03 00:10:37;;;;;;;3.80;2.50;;;;;;;;;;5249938;28;20099;-71
2022/07/03 00:13:08;;;;;;;5.68;3.33;;;;;;;;;;5251642;28;20028;-70
2022/07/03 00:15:39;;;;;;;5.60;2.30;;;;;;;;;;5231397;28;20021;-70
2022/07/03 00:18:10;;;;;;;6.60;2.57;;;;;;;;;;5248582;28;20025;-70
2022/07/03 00:20:47;;;;;;;5.27;2.90;;;;;;;;;;5249508;28;20036;-70
2022/07/03 00:23:20;;;;;;;6.27;2.73;;;;;;;;;;5253619;28;20029;-70
2022/07/03 00:25:51;;;;;;;8.87;3.70;;;;;;;;;;5251842;28;20479;-71
2022/07/03 00:28:23;;;;;;;5.97;2.93;;;;;;;;;;5253108;28;20035;-70
2022/07/03 00:30:55;;;;;;;5.17;2.80;;;;;;;;;;5251947;28;20047;-71
2022/07/03 00:33:27;;;;;;;4.73;3.00;;;;;;;;;;5252528;28;20111;-70
2022/07/03 00:35:59;;;;;;;6.37;3.80;;;;;;;;;;5252797;28;20025;-70
2022/07/03 00:38:30;;;;;;;5.87;3.37;;;;;;;;;;5235046;28;20515;-70
2022/07/03 00:41:02;;;;;;;5.47;3.23;;;;;;;;;;5213175;28;20233;-70
2022/07/03 00:43:33;;;;;;;8.03;4.63;;;;;;;;;;5232023;28;20059;-70
2022/07/03 00:46:08;;;;;;;7.17;3.23;;;;;;;;;;5233364;28;20049;-70
2022/07/03 00:48:44;;;;;;;7.17;3.63;;;;;;;;;;5235155;28;20029;-70
2022/07/03 00:51:18;;;;;;;3.63;2.60;;;;;;;;;;5234593;28;20025;-70
2022/07/03 00:53:53;;;;;;;5.38;3.33;;;;;;;;;;5253234;28;20028;-70
2022/07/03 00:56:28;;;;;;;8.00;4.20;;;;;;;;;;5252066;28;20040;-70
2022/07/03 00:59:00;;;;;;;6.50;3.23;;;;;;;;;;5253224;28;20025;-70
2022/07/03 01:01:34;;;;;;;5.83;3.20;;;;;;;;;;5253287;28;20579;-70
2022/07/03 01:04:10;;;;;;;5.05;2.83;;;;;;;;;;5253118;28;20045;-70
2022/07/03 01:06:50;;;;;;;7.53;3.17;;;;;;;;;;5252500;28;20021;-70
2022/07/03 01:09:25;;;;;;;4.67;3.50;;;;;;;;;;5253050;28;20025;-70
2022/07/03 01:12:06;;;;;;;5.83;3.37;;;;;;;;;;5233865;28;20092;-70
2022/07/03 01:14:51;;;;;;;4.90;2.87;;;;;;;;;;5252955;28;20013;-70
2022/07/03 01:17:31;;;;;;;7.23;3.70;;;;;;;;;;5252224;28;20508;-70
2022/07/03 01:20:03;;;;;;;8.20;3.77;;;;;;;;;;5252398;28;20475;-70
2022/07/03 01:22:36;;;;;;;6.43;3.90;;;;;;;;;;5256776;28;20043;-70
2022/07/03 01:25:10;;;;;;;7.23;3.80;;;;;;;;;;5252045;28;20616;-70
2022/07/03 01:27:41;;;;;;;8.63;3.65;;;;;;;;;;5251610;28;20016;-70
2022/07/03 01:30:12;;;;;;;7.93;3.47;;;;;;;;;;5252223;28;20510;-70
2022/07/03 01:32:45;;;;;;;6.30;3.27;;;;;;;;;;5252463;28;20009;-70
2022/07/03 01:35:24;;;;;;;7.90;3.03;;;;;;;;;;5252824;28;20376;-70
2022/07/03 01:37:56;;;;;;;6.13;3.57;;;;;;;;;;5251810;28;20028;-71
2022/07/03 01:40:28;;;;;;;4.27;3.23;;;;;;;;;;5252108;28;20601;-69
2022/07/03 01:43:02;;;;;;;9.40;3.60;;;;;;;;;;5234288;28;20024;-70
2022/07/03 01:45:36;;;;;;;7.95;3.90;;;;;;;;;;5252055;28;20657;-70
2022/07/03 01:48:07;;;;;;;10.10;4.97;;;;;;;;;;5251814;28;20074;-70
2022/07/03 01:50:40;;;;;;;6.37;3.93;;;;;;;;;;5251815;28;20021;-70
2022/07/03 01:53:11;;;;;;;8.13;3.67;;;;;;;;;;5251665;28;20372;-70
2022/07/03 01:55:42;;;;;;;7.30;4.20;;;;;;;;;;5251161;28;20078;-70
2022/07/03 01:58:13;;;;;;;7.53;4.20;;;;;;;;;;5251491;28;20020;-70
2022/07/03 02:00:54;;;;;;;8.40;3.93;;;;;;;;;;5251824;28;20031;-70
2022/07/03 02:03:27;;;;;;;6.80;4.23;;;;;;;;;;5233478;28;20052;-71
2022/07/03 02:06:12;;;;;;;7.30;4.27;;;;;;;;;;5233306;28;20058;-70
2022/07/03 02:08:47;;;;;;;6.33;3.97;;;;;;;;;;5252024;28;20078;-70
2022/07/03 02:11:19;;;;;;;7.87;4.37;;;;;;;;;;5249896;28;20017;-70
2022/07/03 02:13:53;;;;;;;7.63;3.97;;;;;;;;;;5251797;28;20025;-70
2022/07/03 02:16:26;;;;;;;7.47;4.45;;;;;;;;;;5250576;28;20067;-70
2022/07/03 02:19:04;;;;;;;7.63;4.13;;;;;;;;;;5251563;28;20610;-70
2022/07/03 02:21:39;;;;;;;10.27;4.67;;;;;;;;;;5250076;28;20556;-70
2022/07/03 02:24:11;;;;;;;7.27;4.60;;;;;;;;;;5217181;28;20549;-70
2022/07/03 02:26:43;;;;;;;6.47;4.20;;;;;;;;;;5232981;28;20025;-69
2022/07/03 02:29:20;;;;;;;5.60;4.00;;;;;;;;;;5233002;28;20101;-73
2022/07/03 02:31:56;;;;;;;7.40;4.77;;;;;;;;;;5248996;28;20376;-73
2022/07/03 02:34:28;;;;;;;5.63;4.03;;;;;;;;;;5251098;28;20044;-72
2022/07/03 02:37:05;;;;;;;8.20;4.00;;;;;;;;;;5250228;28;20017;-72
2022/07/03 02:39:49;;;;;;;9.57;4.03;;;;;;;;;;5235338;28;20035;-72
2022/07/03 02:42:23;;;;;;;6.47;4.38;;;;;;;;;;5236749;28;20029;-69
2022/07/03 02:44:56;;;;;;;6.25;4.38;;;;;;;;;;5248367;28;20067;-68
2022/07/03 02:47:34;;;;;;;8.63;4.60;;;;;;;;;;5248732;28;20068;-69
2022/07/03 02:50:10;;;;;;;7.80;4.30;;;;;;;;;;5231795;28;20017;-69
2022/07/03 02:52:44;;;;;;;5.47;4.53;;;;;;;;;;5231502;28;20029;-69
2022/07/03 02:55:21;;;;;;;6.85;3.88;;;;;;;;;;5249057;28;20017;-68
2022/07/03 02:58:12;;;;;;;7.37;4.77;;;;;;;;;;5250939;28;20564;-72
2022/07/03 03:00:58;;;;;;;6.10;4.37;;;;;;;;;;5249599;28;20495;-70
2022/07/03 03:03:30;;;;;;;7.20;4.50;;;;;;;;;;5249007;28;20053;-70
2022/07/03 03:06:10;;;;;;;9.27;4.77;;;;;;;;;;5249136;28;20089;-70
2022/07/03 03:08:48;;;;;;;10.10;4.73;;;;;;;;;;5250488;28;20035;-70
2022/07/03 03:11:20;;;;;;;8.00;4.00;;;;;;;;;;5248492;28;22175;-70
2022/07/03 03:13:55;;;;;;;9.90;4.93;;;;;;;;;;5249885;28;20017;-70
2022/07/03 03:16:26;;;;;;;8.27;4.50;;;;;;;;;;5249426;28;20616;-69
2022/07/03 03:18:58;;;;;;;6.73;4.63;;;;;;;;;;5249672;28;20067;-70
2022/07/03 03:21:31;;;;;;;5.77;3.80;;;;;;;;;;5249494;28;20025;-70
2022/07/03 03:24:02;;;;;;;8.87;4.87;;;;;;;;;;5245479;28;20457;-70
2022/07/03 03:26:33;;;;;;;8.07;4.63;;;;;;;;;;5248409;28;20112;-69
2022/07/03 03:29:05;;;;;;;5.80;5.07;;;;;;;;;;5249463;28;20110;-70
2022/07/03 03:31:36;;;;;;;6.43;4.20;;;;;;;;;;5253701;28;20093;-70
2022/07/03 03:34:09;;;;;;;9.10;4.80;;;;;;;;;;5249200;28;20120;-70
2022/07/03 03:36:40;;;;;;;9.20;4.10;;;;;;;;;;5249838;28;20396;-70
2022/07/03 03:39:12;;;;;;;6.07;4.20;;;;;;;;;;5249748;28;20079;-70
2022/07/03 03:41:43;;;;;;;6.00;4.20;;;;;;;;;;5248959;28;20033;-70
2022/07/03 03:44:14;;;;;;;6.53;4.27;;;;;;;;;;5248337;28;20523;-70
2022/07/03 03:46:45;;;;;;;6.23;4.37;;;;;;;;;;5249296;28;20096;-70
2022/07/03 03:49:16;;;;;;;7.93;3.60;;;;;;;;;;5231883;28;20029;-70
2022/07/03 03:51:48;;;;;;;7.23;4.23;;;;;;;;;;5248034;28;20032;-70
2022/07/03 03:54:19;;;;;;;7.43;4.40;;;;;;;;;;5230647;28;20021;-70
2022/07/03 03:56:50;;;;;;;6.00;4.00;;;;;;;;;;5229558;28;20020;-70
2022/07/03 03:59:21;;;;;;;7.50;4.40;;;;;;;;;;5248603;28;20029;-70
2022/07/03 04:01:52;;;;;;;5.33;3.70;;;;;;;;;;5248900;28;20025;-70
2022/07/03 04:04:24;;;;;;;5.43;4.00;;;;;;;;;;5248680;28;20471;-70
2022/07/03 04:06:55;;;;;;;8.07;4.07;;;;;;;;;;5230609;28;20071;-69
2022/07/03 04:09:26;;;;;;;4.87;4.33;;;;;;;;;;5248761;28;20614;-70
2022/07/03 04:11:57;;;;;;;4.40;3.57;;;;;;;;;;5228458;28;20017;-69
2022/07/03 04:14:29;;;;;;;7.60;4.63;;;;;;;;;;5249310;28;20029;-70
2022/07/03 04:17:00;;;;;;;6.10;3.70;;;;;;;;;;5247423;28;20025;-70
2022/07/03 04:19:31;;;;;;;8.53;4.57;;;;;;;;;;5230990;28;20032;-70
2022/07/03 04:22:08;;;;;;;5.27;4.07;;;;;;;;;;5229687;28;20484;-70
2022/07/03 04:24:39;;;;;;;4.93;3.23;;;;;;;;;;5247192;28;20052;-70
2022/07/03 04:27:10;;;;;;;4.77;3.10;;;;;;;;;;5247472;28;20036;-70
2022/07/03 04:29:41;;;;;;;7.97;4.03;;;;;;;;;;5247900;28;20060;-70
2022/07/03 04:32:12;;;;;;;6.03;4.00;;;;;;;;;;5230209;28;20482;-70
2022/07/03 04:34:43;;;;;;;7.70;3.83;;;;;;;;;;5248747;28;20024;-70
2022/07/03 04:37:15;;;;;;;8.63;3.43;;;;;;;;;;5230353;28;20036;-70
2022/07/03 04:39:46;;;;;;;4.97;3.73;;;;;;;;;;5249266;28;20451;-70
2022/07/03 04:42:17;;;;;;;5.83;3.40;;;;;;;;;;5246503;28;20151;-70
2022/07/03 04:44:48;;;;;;;6.27;3.40;;;;;;;;;;5248796;28;20025;-70
2022/07/03 04:47:20;;;;;;;7.83;3.70;;;;;;;;;;5248545;28;20035;-70
2022/07/03 04:49:51;;;;;;;7.93;3.80;;;;;;;;;;5248468;28;20021;-70
2022/07/03 04:52:22;;;;;;;5.93;3.50;;;;;;;;;;5247860;28;20017;-70
2022/07/03 04:54:54;;;;;;;8.43;3.70;;;;;;;;;;5247603;28;20024;-69
2022/07/03 04:57:25;;;;;;;6.97;3.50;;;;;;;;;;5246524;28;20063;-70
2022/07/03 04:59:56;;;;;;;4.93;3.67;;;;;;;;;;5230312;28;20031;-69
2022/07/03 05:02:27;;;;;;;8.87;3.60;;;;;;;;;;5248323;28;20057;-70
2022/07/03 05:04:59;;;;;;;5.27;3.57;;;;;;;;;;5229834;28;20119;-70
2022/07/03 05:07:30;;;;;;;6.27;3.47;;;;;;;;;;5231739;28;20032;-69
2022/07/03 05:10:01;;;;;;;6.50;3.73;;;;;;;;;;5233059;28;20464;-70
2022/07/03 05:12:32;;;;;;;5.13;2.90;;;;;;;;;;5250929;28;20021;-70
2022/07/03 05:15:04;;;;;;;6.57;3.37;;;;;;;;;;5233838;28;20052;-70
2022/07/03 05:17:35;;;;;;;7.80;3.93;;;;;;;;;;5234062;28;20028;-70
2022/07/03 05:20:25;;;;;;;6.97;3.47;;;;;;;;;;5251402;28;20021;-70
2022/07/03 05:23:00;;;;;;;8.27;3.60;;;;;;;;;;5231863;28;20032;-70
2022/07/03 05:25:31;;;;;;;5.30;3.70;;;;;;;;;;5250631;28;20040;-70
2022/07/03 05:28:02;;;;;;;7.33;3.40;;;;;;;;;;5249864;28;20028;-70
2022/07/03 05:30:34;;;;;;;5.47;3.40;;;;;;;;;;5232184;28;20396;-70
2022/07/03 05:33:05;;;;;;;8.50;4.10;;;;;;;;;;5232000;28;20032;-70
2022/07/03 05:35:36;;;;;;;6.03;3.03;;;;;;;;;;5251792;28;20017;-70
2022/07/03 05:38:07;;;;;;;10.77;3.57;;;;;;;;;;5250077;28;20027;-70
2022/07/03 05:40:38;;;;;;;6.80;3.47;;;;;;;;;;5230205;28;20472;-70
2022/07/03 05:43:10;;;;;;;6.23;3.60;;;;;;;;;;5250787;28;20045;-70
2022/07/03 05:45:41;;;;;;;8.48;3.47;;;;;;;;;;5251455;28;20104;-69
2022/07/03 05:48:12;;;;;;;7.03;3.00;;;;;;;;;;5250909;28;20032;-70
2022/07/03 05:50:43;;;;;;;7.00;3.47;;;;;;;;;;5232912;28;20059;-70
2022/07/03 05:53:15;;;;;;;8.10;3.77;;;;;;;;;;5252025;28;20154;-69
2022/07/03 05:55:46;;;;;;;4.60;3.13;;;;;;;;;;5230170;28;20048;-70
2022/07/03 05:58:17;;;;;;;8.40;3.27;;;;;;;;;;5248944;28;20024;-70
2022/07/03 06:00:48;;;;;;;5.10;3.00;;;;;;;;;;5250569;28;20153;-70
2022/07/03 06:03:19;;;;;;;5.97;3.20;;;;;;;;;;5250476;28;20128;-70
2022/07/03 06:05:50;;;;;;;6.47;3.07;;;;;;;;;;5251227;28;20027;-70
2022/07/03 06:08:22;;;;;;;5.63;3.35;;;;;;;;;;5250127;28;20472;-70
2022/07/03 06:10:53;;;;;;;8.47;3.53;;;;;;;;;;5248803;28;20017;-70
2022/07/03 06:13:24;;;;;;;8.23;3.57;;;;;;;;;;5250636;28;20647;-70
2022/07/03 06:15:55;;;;;;;5.27;3.03;;;;;;;;;;5250572;28;20044;-70
2022/07/03 06:18:26;;;;;;;7.93;3.63;;;;;;;;;;5250550;28;20040;-71
2022/07/03 06:20:57;;;;;;;8.90;3.70;;;;;;;;;;5250277;28;20021;-70
2022/07/03 06:23:29;;;;;;;6.83;3.73;;;;;;;;;;5250870;28;20025;-71
2022/07/03 06:26:00;;;;;;;6.07;3.70;;;;;;;;;;5248799;28;20024;-71
2022/07/03 06:28:31;;;;;;;10.13;4.37;;;;;;;;;;5250364;28;20033;-70
2022/07/03 06:31:02;;;;;;;9.20;4.20;;;;;;;;;;5249951;28;20021;-70
2022/07/03 06:33:33;;;;;;;7.33;4.07;;;;;;;;;;5249306;28;20108;-70
2022/07/03 06:36:05;;;;;;;10.33;3.83;;;;;;;;;;5250004;28;20017;-70
2022/07/03 06:38:36;;;;;;;8.93;3.47;;;;;;;;;;5249628;28;20021;-70
2022/07/03 06:41:07;;;;;;;9.03;3.53;;;;;;;;;;5252020;28;20013;-70
2022/07/03 06:43:38;;;;;;;8.20;3.57;;;;;;;;;;5253857;28;20495;-70
2022/07/03 06:46:10;;;;;;;6.77;3.13;;;;;;;;;;5248967;28;20580;-71
2022/07/03 06:48:41;;;;;;;6.97;3.40;;;;;;;;;;5249580;28;20028;-70
2022/07/03 06:51:12;;;;;;;7.53;3.17;;;;;;;;;;5249281;28;20025;-70
2022/07/03 06:53:43;;;;;;;7.90;3.60;;;;;;;;;;5249994;28;20096;-70
2022/07/03 06:56:14;;;;;;;7.73;3.73;;;;;;;;;;5249001;28;20029;-70
2022/07/03 06:58:45;;;;;;;6.33;3.20;;;;;;;;;;5231559;28;20017;-70
2022/07/03 07:01:17;;;;;;;9.60;4.03;;;;;;;;;;5247580;28;20013;-70
2022/07/03 07:03:48;;;;;;;9.33;3.40;;;;;;;;;;5229383;28;20155;-70
2022/07/03 07:06:19;;;;;;;6.70;3.23;;;;;;;;;;5248264;28;20021;-70
2022/07/03 07:08:51;;;;;;;8.53;3.47;;;;;;;;;;5250637;28;20099;-70
2022/07/03 07:11:22;;;;;;;7.63;3.00;;;;;;;;;;5231378;28;20106;-70
2022/07/03 07:13:53;;;;;;;8.02;3.03;;;;;;;;;;5231246;28;20029;-70
2022/07/03 07:16:24;;;;;;;7.43;3.07;;;;;;;;;;5249703;28;20071;-69
2022/07/03 07:18:55;;;;;;;9.63;4.03;;;;;;;;;;5249136;28;20377;-71
2022/07/03 07:21:27;;;;;;;5.03;3.20;;;;;;;;;;5249339;28;20020;-71
2022/07/03 07:23:58;;;;;;;5.93;2.80;;;;;;;;;;5249159;28;20369;-70
2022/07/03 07:26:29;;;;;;;7.93;2.97;;;;;;;;;;5247526;28;20399;-70
2022/07/03 07:29:00;;;;;;;5.88;2.86;;;;;;;;;;5248611;28;20032;-70
2022/07/03 07:31:31;;;;;;;5.12;2.50;;;;;;;;;;5249286;28;20029;-70
2022/07/03 07:34:04;;;;;;;8.85;2.15;;;;;;;;;;5248436;28;20048;-70
2022/07/03 07:36:35;;;;;;;5.65;2.97;;;;;;;;;;5249061;28;20021;-70
2022/07/03 07:39:06;;;;;;;7.98;2.26;;;;;;;;;;5230698;28;20028;-70
2022/07/03 07:41:38;;;;;;;5.70;2.30;;;;;;;;;;5248089;28;20075;-70
2022/07/03 07:44:09;;;;;;;5.72;2.25;;;;;;;;;;5248145;28;20025;-70
2022/07/03 07:46:40;;;;;;;7.68;2.63;;;;;;;;;;5227649;28;20053;-70
2022/07/03 07:49:11;;;;;;;7.18;2.75;;;;;;;;;;5249705;28;20038;-70
2022/07/03 07:51:43;;;;;;;5.68;2.78;;;;;;;;;;5231790;28;20052;-70
2022/07/03 07:54:14;;;;;;;6.38;2.72;;;;;;;;;;5249384;28;20025;-70
2022/07/03 07:56:45;;;;;;;5.72;2.30;;;;;;;;;;5248672;28;20668;-70
2022/07/03 07:59:16;;;;;;;8.35;2.75;;;;;;;;;;5231821;28;20377;-70
2022/07/03 08:07:27;;;;;;;3.85;2.20;;;;;;;;;;5248509;28;20116;-70
2022/07/03 08:09:58;;;;;;;5.70;1.70;;;;;;;;;;5247355;28;20112;-71
2022/07/03 08:12:29;;;;;;;3.55;1.80;;;;;;;;;;5248389;28;20017;-70
2022/07/03 08:15:01;;;;;;;5.03;2.88;;;;;;;;;;5248041;28;20287;-71
2022/07/03 08:17:32;;;;;;;6.63;2.15;;;;;;;;;;5248564;28;20017;-71
2022/07/03 08:20:03;;;;;;;7.97;2.35;;;;;;;;;;5247244;28;20025;-71
2022/07/03 08:22:34;;;;;;;4.47;1.88;;;;;;;;;;5229289;28;20928;-70
2022/07/03 08:25:06;;;;;;;3.60;2.03;;;;;;;;;;5243043;28;20043;-70
2022/07/03 08:27:37;;;;;;;4.43;2.28;;;;;;;;;;5250247;28;20283;-71
2022/07/03 08:30:08;;;;;;;5.25;2.15;;;;;;;;;;5249078;28;20018;-70
2022/07/03 08:32:40;;;;;;;5.07;2.28;;;;;;;;;;5230989;28;20017;-70
2022/07/03 08:35:11;;;;;;;6.95;2.33;;;;;;;;;;5231149;28;20099;-70
2022/07/03 08:37:46;;;;;;;6.40;2.03;;;;;;;;;;5249908;28;20394;-70
2022/07/03 08:40:17;;;;;;;7.10;2.60;;;;;;;;;;5247470;28;20029;-70
2022/07/03 08:42:53;;;;;;;5.70;1.95;;;;;;;;;;5250678;28;20032;-69
2022/07/03 08:45:24;;;;;;;5.40;1.92;;;;;;;;;;5252817;28;20084;-69
2022/07/03 08:47:58;;;;;;;5.85;2.22;;;;;;;;;;5252393;28;20479;-70
2022/07/03 08:50:29;;;;;;;5.20;2.00;;;;;;;;;;5253092;28;20017;-69
2022/07/03 08:53:03;;;;;;;6.47;2.55;;;;;;;;;;5252940;28;20032;-68
2022/07/03 08:55:34;;;;;;;5.78;2.08;;;;;;;;;;5252175;28;20021;-69
2022/07/03 08:58:08;;;;;;;4.22;1.65;;;;;;;;;;5253005;28;20035;-69
2022/07/03 09:00:39;;;;;;;3.83;2.13;;;;;;;;;;5234510;28;20017;-69
2022/07/03 09:03:11;;;;;;;4.20;1.50;;;;;;;;;;5252737;28;20118;-71
2022/07/03 09:05:42;;;;;;;4.63;1.92;;;;;;;;;;5235111;28;20051;-68
2022/07/03 09:08:15;;;;;;;2.92;1.48;;;;;;;;;;5252044;28;20538;-68
2022/07/03 09:10:46;;;;;;;2.75;1.55;;;;;;;;;;5252405;28;20591;-67
2022/07/03 09:13:17;;;;;;;5.13;1.50;;;;;;;;;;5253001;28;20040;-67
2022/07/03 09:15:48;;;;;;;4.13;1.80;;;;;;;;;;5234180;28;20374;-69
2022/07/03 09:18:35;;;;;;;3.40;1.60;;;;;;;;;;5252127;28;20052;-68
2022/07/03 09:21:08;;;;;;;4.70;1.95;;;;;;;;;;5252137;28;20769;-68
2022/07/03 09:23:41;;;;;;;5.97;2.05;;;;;;;;;;5252836;28;20036;-68
2022/07/03 09:26:16;;;;;;;4.37;2.00;;;;;;;;;;5233417;28;20090;-68
2022/07/03 09:28:51;;;;;;;4.05;1.58;;;;;;;;;;5252207;28;20029;-68
2022/07/03 09:31:26;;;;;;;5.53;2.45;;;;;;;;;;5252117;28;20083;-68
2022/07/03 09:34:01;;;;;;;4.43;1.73;;;;;;;;;;5251837;28;20027;-69
2022/07/03 09:36:45;;;;;;;4.70;1.85;;;;;;;;;;5233802;28;20483;-68
2022/07/03 09:39:17;;;;;;;2.67;1.40;;;;;;;;;;5250257;28;20017;-68
2022/07/03 09:41:52;;;;;;;3.95;1.60;;;;;;;;;;5252167;28;20025;-68
2022/07/03 09:44:30;;;;;;;4.97;1.98;;;;;;;;;;5251991;28;20095;-68
2022/07/03 09:47:05;;;;;;;2.58;1.40;;;;;;;;;;5251554;28;20051;-69
2022/07/03 09:49:46;;;;;;;3.97;1.80;;;;;;;;;;5251791;28;20017;-68
2022/07/03 09:52:26;;;;;;;3.58;1.65;;;;;;;;;;5250937;28;20020;-68
2022/07/03 09:55:20;;;;;;;5.78;2.20;;;;;;;;;;5250480;28;20052;-68
2022/07/03 09:57:52;;;;;;;4.88;2.30;;;;;;;;;;5225540;28;20040;-68
2022/07/03 10:00:24;;;;;;;6.13;2.40;;;;;;;;;;5251708;28;20460;-68
2022/07/03 10:03:05;;;;;;;5.93;1.63;;;;;;;;;;5233211;28;20082;-69
2022/07/03 10:05:38;;;;;;;4.25;1.60;;;;;;;;;;5252141;28;20086;-69
2022/07/03 10:08:13;;;;;;;4.40;1.60;;;;;;;;;;5251233;28;20521;-69
2022/07/03 10:10:47;;;;;;;3.13;1.40;;;;;;;;;;5250780;28;20031;-69
2022/07/03 10:13:18;;;;;;;4.78;1.60;;;;;;;;;;5251318;28;20488;-69
2022/07/03 10:15:49;;;;;;;4.78;1.38;;;;;;;;;;5251368;28;20021;-69
2022/07/03 10:18:22;;;;;;;3.25;1.60;;;;;;;;;;5250653;28;20059;-70
2022/07/03 10:20:56;;;;;;;3.22;1.52;;;;;;;;;;5251185;28;20033;-69
2022/07/03 10:23:27;;;;;;;4.15;1.30;;;;;;;;;;5232561;28;20043;-70
2022/07/03 10:25:59;;;;;;;2.75;1.40;;;;;;;;;;5249062;28;20021;-70
2022/07/03 10:28:31;;;;;;;4.25;1.45;;;;;;;;;;5233081;28;20028;-70
2022/07/03 10:31:03;;;;;;;4.32;1.40;;;;;;;;;;5230499;28;20311;-71
2022/07/03 10:33:36;;;;;;;7.05;1.65;;;;;;;;;;5249806;28;20094;-70
2022/07/03 10:36:08;;;;;;;6.57;1.92;;;;;;;;;;5249907;28;20047;-69
2022/07/03 10:38:40;;;;;;;3.95;1.48;;;;;;;;;;5239610;28;20020;-69
2022/07/03 10:47:05;;;;;;;14.82;3.45;;;;;;;;;;5229050;28;20468;-70
2022/07/03 10:49:56;;;;;;;3.22;1.20;;;;;;;;;;5242436;28;20020;-70
2022/07/03 10:52:27;;;;;;;6.70;1.48;;;;;;;;;;5245958;28;20671;-70
2022/07/03 10:54:59;;;;;;;4.70;1.27;;;;;;;;;;5245593;28;20021;-69
2022/07/03 10:57:30;;;;;;;3.40;1.08;;;;;;;;;;5230060;28;20287;-68
2022/07/03 11:00:03;;;;;;;2.90;1.10;;;;;;;;;;5229554;28;20033;-67
2022/07/03 11:02:36;;;;;;;4.60;1.80;;;;;;;;;;5230109;28;20060;-67
2022/07/03 11:05:10;;;;;;;4.10;1.58;;;;;;;;;;5236307;28;20638;-66
2022/07/03 11:07:41;;;;;;;6.15;2.03;;;;;;;;;;5220816;28;20652;-67
2022/07/03 11:10:16;;;;;;;3.95;1.30;;;;;;;;;;5218483;28;20025;-67
2022/07/03 11:13:06;;;;;;;4.47;1.50;;;;;;;;;;5219421;28;20283;-68
2022/07/03 11:15:37;;;;;;;4.72;1.10;;;;;;;;;;5219465;28;20025;-68
2022/07/03 11:18:11;;;;;;;4.38;1.65;;;;;;;;;;5218534;28;20049;-68
2022/07/03 11:20:42;;;;;;;2.78;1.13;;;;;;;;;;5219331;28;20416;-69
2022/07/03 11:23:23;;;;;;;2.53;1.02;;;;;;;;;;5224482;28;20034;-68
2022/07/03 11:25:55;;;;;;;1.92;1.08;;;;;;;;;;5217445;28;21169;-69
2022/07/03 11:28:32;;;;;;;3.83;1.10;;;;;;;;;;5217946;28;20016;-68
2022/07/03 11:31:18;;;;;;;7.30;1.40;;;;;;;;;;5218772;28;20040;-68
2022/07/03 11:33:56;;;;;;;6.38;1.35;;;;;;;;;;5219845;28;20369;-67
2022/07/03 11:36:27;;;;;;;2.38;1.02;;;;;;;;;;5219553;28;20056;-67
2022/07/03 11:38:58;;;;;;;3.33;1.27;;;;;;;;;;5218700;28;20139;-67
2022/07/03 11:41:30;;;;;;;3.05;1.40;;;;;;;;;;5201944;28;20022;-67
2022/07/03 11:44:03;;;;;;;4.85;1.30;;;;;;;;;;5218837;28;20304;-67
2022/07/03 11:46:37;;;;;;;4.78;2.08;;;;;;;;;;5219039;28;20416;-67
2022/07/03 11:49:12;;;;;;;5.28;1.98;;;;;;;;;;5219108;28;20037;-68
2022/07/03 11:52:04;;;;;;;5.07;2.20;;;;;;;;;;5219811;28;20029;-65
2022/07/03 11:55:04;;;;;;;5.25;1.40;;;;;;;;;;5218826;28;20025;-66
2022/07/03 11:57:36;;;;;;;7.68;1.67;;;;;;;;;;5204924;28;20037;-68
2022/07/03 12:00:07;;;;;;;4.00;1.52;;;;;;;;;;5219780;28;20020;-70
2022/07/03 12:02:48;;;;;;;4.15;1.60;;;;;;;;;;5225312;28;21375;-69
2022/07/03 12:05:19;;;;;;;5.70;1.13;;;;;;;;;;5219940;28;20030;-71
2022/07/03 12:08:03;;;;;;;5.72;1.10;;;;;;;;;;5201803;28;20519;-75
2022/07/03 12:10:38;;;;;;;5.57;1.15;;;;;;;;;;5210219;28;20029;-75
2022/07/03 12:13:20;;;;;;;5.95;1.65;;;;;;;;;;5207364;28;20086;-73
2022/07/03 12:15:51;;;;;;;2.95;0.88;;;;;;;;;;5220900;28;20025;-73
2022/07/03 12:18:22;;;;;;;5.57;0.95;;;;;;;;;;5232792;28;20086;-75
2022/07/03 12:20:53;;;;;;;3.47;0.95;;;;;;;;;;5237208;28;20051;-74
2022/07/03 12:23:25;;;;;;;3.65;1.02;;;;;;;;;;5233433;28;20033;-75
2022/07/03 12:25:56;;;;;;;3.15;0.80;;;;;;;;;;5239345;28;20679;-69
2022/07/03 12:28:27;;;;;;;3.75;0.82;;;;;;;;;;5246635;28;20402;-72
2022/07/03 12:30:58;;;;;;;5.30;1.00;;;;;;;;;;5251222;28;20761;-68
2022/07/03 12:33:35;;;;;;;2.05;0.70;;;;;;;;;;5249431;28;20021;-70
2022/07/03 12:36:07;;;;;;;1.73;0.90;;;;;;;;;;5251952;28;20036;-74
2022/07/03 12:38:40;;;;;;;4.90;0.90;;;;;;;;;;5251700;28;20094;-74
2022/07/03 12:41:11;;;;;;;1.67;0.60;;;;;;;;;;5252635;28;20024;-68
2022/07/03 12:43:45;;;;;;;1.83;0.70;;;;;;;;;;5250731;28;20028;-73
2022/07/03 12:46:26;;;;;;;1.73;0.60;;;;;;;;;;5253683;28;20017;-74
2022/07/03 12:48:58;;;;;;;5.20;1.45;;;;;;;;;;5256339;28;20029;-74
2022/07/03 12:51:39;;;;;;;2.17;0.55;;;;;;;;;;5254819;28;20028;-76
2022/07/03 12:54:12;;;;;;;4.53;0.95;;;;;;;;;;5253673;28;20075;-76
2022/07/03 12:56:43;;;;;;;3.13;0.80;;;;;;;;;;5251618;28;20035;-77
2022/07/03 12:59:27;;;;;;;1.83;0.70;;;;;;;;;;5252612;28;20031;-75
2022/07/03 13:02:00;;;;;;;2.63;1.10;;;;;;;;;;5252944;28;20131;-76
2022/07/03 13:04:33;;;;;;;3.95;0.60;;;;;;;;;;5250988;28;20037;-74
2022/07/03 13:07:05;;;;;;;2.27;0.90;;;;;;;;;;5233353;28;20116;-72
2022/07/03 13:09:36;;;;;;;0.82;0.60;;;;;;;;;;5231123;28;20107;-73
2022/07/03 13:12:08;;;;;;;1.63;0.60;;;;;;;;;;5232341;28;20676;-74
2022/07/03 13:14:39;;;;;;;0.82;0.40;;;;;;;;;;5238470;28;20456;-77
2022/07/03 13:17:10;;;;;;;3.35;0.60;;;;;;;;;;5252185;28;20029;-68
2022/07/03 13:19:41;;;;;;;2.25;0.60;;;;;;;;;;5234119;28;20048;-75
2022/07/03 13:22:12;;;;;;;1.80;0.70;;;;;;;;;;5251651;28;20029;-73
2022/07/03 13:24:44;;;;;;;4.30;0.77;;;;;;;;;;5240034;28;20025;-74
2022/07/03 13:27:15;;;;;;;1.17;0.68;;;;;;;;;;5211665;28;20020;-75
2022/07/03 13:29:46;;;;;;;1.58;0.55;;;;;;;;;;5234150;28;20056;-74
2022/07/03 13:32:17;;;;;;;3.08;0.50;;;;;;;;;;5225384;28;20129;-68
2022/07/03 13:34:48;;;;;;;2.40;0.57;;;;;;;;;;5203680;28;20014;-68
2022/07/03 13:37:20;;;;;;;2.14;0.60;;;;;;;;;;5225050;28;20112;-69
2022/07/03 13:39:51;;;;;;;7.63;1.05;;;;;;;;;;5220632;28;20029;-70
2022/07/03 13:42:22;;;;;;;3.28;0.82;;;;;;;;;;5221784;28;20037;-70
2022/07/03 13:44:53;;;;;;;2.85;0.80;;;;;;;;;;5226545;28;20084;-70
2022/07/03 13:47:24;;;;;;;2.58;0.60;;;;;;;;;;5221041;28;20029;-70
2022/07/03 13:49:55;;;;;;;2.16;0.50;;;;;;;;;;5222315;28;20025;-70
2022/07/03 13:52:27;;;;;;;2.92;1.52;;;;;;;;;;5222284;28;20035;-70
2022/07/03 13:54:58;;;;;;;5.13;0.90;;;;;;;;;;5219332;28;20017;-69
2022/07/03 13:57:29;;;;;;;5.25;1.38;;;;;;;;;;5222734;28;20021;-70
2022/07/03 14:00:00;;;;;;;3.95;1.17;;;;;;;;;;5220576;28;20068;-69
2022/07/03 14:02:31;;;;;;;4.75;1.70;;;;;;;;;;5224537;28;20036;-71
2022/07/03 14:05:03;;;;;;;5.20;0.90;;;;;;;;;;5223226;28;20116;-71
2022/07/03 14:07:34;;;;;;;4.80;1.40;;;;;;;;;;5224782;28;20029;-70
2022/07/03 14:10:05;;;;;;;2.88;1.02;;;;;;;;;;5220355;28;20076;-69
2022/07/03 14:12:37;;;;;;;3.70;1.35;;;;;;;;;;5223679;28;20039;-70
2022/07/03 14:15:08;;;;;;;4.82;1.15;;;;;;;;;;5223724;28;20033;-70
2022/07/03 14:17:39;;;;;;;4.70;1.20;;;;;;;;;;5221194;28;20075;-70
2022/07/03 14:20:11;;;;;;;2.08;1.33;;;;;;;;;;5223981;28;20028;-70
2022/07/03 14:22:45;;;;;;;6.63;1.40;;;;;;;;;;5223776;28;20057;-71
2022/07/03 14:25:16;;;;;;;4.85;1.38;;;;;;;;;;5224101;28;20087;-70
2022/07/03 14:33:28;;;;;;;3.22;1.25;;;;;;;;;;5224434;28;20778;-69
2022/07/03 14:35:59;;;;;;;4.60;1.30;;;;;;;;;;5227779;28;20033;-69
2022/07/03 14:38:30;;;;;;;3.17;0.85;;;;;;;;;;5202936;28;20052;-69
2022/07/03 14:41:01;;;;;;;3.35;1.40;;;;;;;;;;5218490;28;20029;-70
2022/07/03 14:43:32;;;;;;;5.38;1.55;;;;;;;;;;5220174;28;20034;-70
2022/07/03 14:46:04;;;;;;;3.45;1.17;;;;;;;;;;5229235;28;20029;-71
2022/07/03 14:48:35;;;;;;;2.85;0.93;;;;;;;;;;5222097;28;20108;-70
2022/07/03 14:51:06;;;;;;;3.42;0.90;;;;;;;;;;5221349;28;20100;-71
2022/07/03 14:53:37;;;;;;;7.10;1.20;;;;;;;;;;5221093;28;20040;-70
2022/07/03 14:56:15;;;;;;;7.00;1.60;;;;;;;;;;5221124;28;20117;-70
2022/07/03 14:58:46;;;;;;;2.22;0.70;;;;;;;;;;5222540;28;20025;-71
2022/07/03 15:01:18;;;;;;;2.38;0.82;;;;;;;;;;5222110;28;20025;-70
2022/07/03 15:03:55;;;;;;;5.97;1.30;;;;;;;;;;5202188;28;21267;-71
2022/07/03 15:06:27;;;;;;;1.63;0.80;;;;;;;;;;5204110;28;20030;-71
2022/07/03 15:09:00;;;;;;;3.17;0.80;;;;;;;;;;5198344;28;20076;-71
2022/07/03 15:14:30;;;;;;;2.65;0.95;;;;;;;;;;5210735;28;20058;-72
2022/07/03 15:17:01;;;;;;;3.40;1.00;;;;;;;;;;5202899;28;20120;-71
2022/07/03 15:19:33;;;;;;;4.20;1.40;;;;;;;;;;5204973;28;20033;-72
2022/07/03 15:22:04;;;;;;;4.13;0.95;;;;;;;;;;5208914;28;20045;-71
2022/07/03 15:24:40;;;;;;;2.67;0.90;;;;;;;;;;5196831;28;20028;-74
2022/07/03 15:27:11;;;;;;;2.55;0.93;;;;;;;;;;5209627;28;20042;-72
2022/07/03 15:29:43;;;;;;;3.22;0.93;;;;;;;;;;5197812;28;21372;-71
2022/07/03 15:32:15;;;;;;;4.30;1.40;;;;;;;;;;5207790;28;20029;-71
2022/07/03 15:34:46;;;;;;;3.25;1.02;;;;;;;;;;5198893;28;20026;-71
2022/07/03 15:37:30;;;;;;;2.95;0.90;;;;;;;;;;5205770;28;20022;-71